Saint Bonnet de Bellac- Haute Vienne - France
Donnes mto: jeudi, 17/11/2011
Date Horaire Temp. E. Hum. E. P.atmo. Pluie Vent Direction Direction Ensoleilleme Solaire P. de rose Temp au vent Rafales
17/11/2011 00:00 11,4 C 91 % 1019,2 hPa 0,0 mm 8,3 km/h (2 Bft) SO 225 0 min 0 W/m 10,0 C 11,4 C 10,8 km/h (2 Bft)
17/11/2011 00:05 11,4 C 91 % 1019,3 hPa 0,0 mm 6,8 km/h (2 Bft) SO 225 0 min 0 W/m 10,0 C 11,4 C 6,8 km/h (2 Bft)
17/11/2011 00:10 11,4 C 91 % 1019,3 hPa 0,0 mm 6,1 km/h (2 Bft) S-SO 202 0 min 0 W/m 10,0 C 11,4 C 7,9 km/h (2 Bft)
17/11/2011 00:15 11,3 C 91 % 1019,3 hPa 0,0 mm 6,5 km/h (2 Bft) S-SO 202 0 min 0 W/m 9,9 C 11,3 C 9,7 km/h (2 Bft)
17/11/2011 00:20 11,2 C 91 % 1019,4 hPa 0,0 mm 3,2 km/h (1 Bft) S-SO 202 0 min 0 W/m 9,8 C 11,2 C 6,8 km/h (2 Bft)
17/11/2011 00:25 11,1 C 91 % 1019,5 hPa 0,0 mm 5,0 km/h (1 Bft) SO 225 0 min 0 W/m 9,7 C 11,1 C 9,4 km/h (2 Bft)
17/11/2011 00:30 10,9 C 91 % 1019,5 hPa 0,0 mm 3,6 km/h (1 Bft) SO 225 0 min 0 W/m 9,5 C 10,9 C 6,8 km/h (2 Bft)
17/11/2011 00:35 10,9 C 92 % 1019,5 hPa 0,0 mm 5,8 km/h (2 Bft) S 180 0 min 0 W/m 9,7 C 10,9 C 10,1 km/h (2 Bft)
17/11/2011 00:40 10,8 C 92 % 1019,6 hPa 0,0 mm 5,0 km/h (1 Bft) S-SO 202 0 min 0 W/m 9,6 C 10,8 C 5,0 km/h (1 Bft)
17/11/2011 00:45 10,8 C 92 % 1019,6 hPa 0,0 mm 3,6 km/h (1 Bft) SO 225 0 min 0 W/m 9,6 C 10,8 C 6,5 km/h (2 Bft)
17/11/2011 00:50 10,6 C 92 % 1019,6 hPa 0,0 mm 6,1 km/h (2 Bft) S-SO 202 0 min 0 W/m 9,4 C 10,6 C 8,6 km/h (2 Bft)
17/11/2011 00:55 10,6 C 93 % 1019,8 hPa 0,0 mm 2,9 km/h (1 Bft) SO 225 0 min 0 W/m 9,5 C 10,6 C 7,2 km/h (2 Bft)
17/11/2011 01:00 10,6 C 93 % 1019,7 hPa 0,0 mm 6,1 km/h (2 Bft) S-SO 202 0 min 0 W/m 9,5 C 10,6 C 9,7 km/h (2 Bft)
17/11/2011 01:05 10,6 C 93 % 1019,7 hPa 0,0 mm 3,2 km/h (1 Bft) S-SO 202 0 min 0 W/m 9,5 C 10,6 C 4,0 km/h (1 Bft)
17/11/2011 01:10 10,5 C 93 % 1019,7 hPa 0,0 mm 3,6 km/h (1 Bft) S 180 0 min 0 W/m 9,4 C 10,5 C 6,5 km/h (2 Bft)
17/11/2011 01:15 10,4 C 93 % 1019,8 hPa 0,0 mm 4,3 km/h (1 Bft) S-SO 202 0 min 0 W/m 9,3 C 10,4 C 4,3 km/h (1 Bft)
17/11/2011 01:20 10,4 C 93 % 1019,8 hPa 0,0 mm 2,5 km/h (1 Bft) S-SO 202 0 min 0 W/m 9,3 C 10,4 C 3,2 km/h (1 Bft)
17/11/2011 01:25 10,3 C 93 % 1019,8 hPa 0,0 mm 2,9 km/h (1 Bft) S-SO 202 0 min 0 W/m 9,2 C 10,3 C 4,0 km/h (1 Bft)
17/11/2011 01:30 10,3 C 93 % 1019,8 hPa 0,0 mm 6,1 km/h (2 Bft) S-SO 202 0 min 0 W/m 9,2 C 10,3 C 9,0 km/h (2 Bft)
17/11/2011 01:35 10,3 C 93 % 1019,8 hPa 0,0 mm 3,6 km/h (1 Bft) S-SO 202 0 min 0 W/m 9,2 C 10,3 C 6,8 km/h (2 Bft)
17/11/2011 01:40 10,2 C 93 % 1019,8 hPa 0,0 mm 2,5 km/h (1 Bft) SO 225 0 min 0 W/m 9,1 C 10,2 C 4,0 km/h (1 Bft)
17/11/2011 01:45 10,2 C 93 % 1019,8 hPa 0,0 mm 3,2 km/h (1 Bft) SO 225 0 min 0 W/m 9,1 C 10,2 C 4,3 km/h (1 Bft)
17/11/2011 01:50 10,1 C 93 % 1019,8 hPa 0,0 mm 2,9 km/h (1 Bft) SO 225 0 min 0 W/m 9,0 C 10,1 C 2,9 km/h (1 Bft)
17/11/2011 01:55 10,1 C 93 % 1019,8 hPa 0,0 mm 4,0 km/h (1 Bft) SO 225 0 min 0 W/m 9,0 C 10,1 C 7,6 km/h (2 Bft)
17/11/2011 02:02 10,1 C 94 % 1019,8 hPa 0,0 mm 4,0 km/h (1 Bft) SO 225 0 min 0 W/m 9,2 C 10,1 C 6,5 km/h (2 Bft)
17/11/2011 02:05 10,1 C 94 % 1019,8 hPa 0,0 mm 5,0 km/h (1 Bft) SO 225 0 min 0 W/m 9,2 C 10,1 C 6,5 km/h (2 Bft)
17/11/2011 02:10 10,1 C 94 % 1019,9 hPa 0,0 mm 2,9 km/h (1 Bft) S-SO 202 0 min 0 W/m 9,2 C 10,1 C 4,7 km/h (1 Bft)
17/11/2011 02:15 10,0 C 94 % 1019,9 hPa 0,0 mm 4,7 km/h (1 Bft) S-SO 202 0 min 0 W/m 9,1 C 9,8 C 7,6 km/h (2 Bft)
17/11/2011 02:20 9,9 C 94 % 1020,0 hPa 0,0 mm 2,5 km/h (1 Bft) S-SO 202 0 min 0 W/m 9,0 C 9,9 C 4,0 km/h (1 Bft)
17/11/2011 02:25 9,9 C 94 % 1020,0 hPa 0,0 mm 4,0 km/h (1 Bft) O-SO 247 0 min 0 W/m 9,0 C 9,9 C 8,3 km/h (2 Bft)
17/11/2011 02:30 9,9 C 94 % 1020,0 hPa 0,0 mm 5,4 km/h (2 Bft) S 180 0 min 0 W/m 9,0 C 9,5 C 8,3 km/h (2 Bft)
17/11/2011 02:35 9,9 C 94 % 1020,1 hPa 0,0 mm 4,7 km/h (1 Bft) SO 225 0 min 0 W/m 9,0 C 9,7 C 7,9 km/h (2 Bft)
17/11/2011 02:40 9,9 C 94 % 1020,1 hPa 0,0 mm 6,5 km/h (2 Bft) SO 225 0 min 0 W/m 9,0 C 9,2 C 9,7 km/h (2 Bft)
17/11/2011 02:45 9,9 C 94 % 1020,0 hPa 0,0 mm 4,0 km/h (1 Bft) S-SO 202 0 min 0 W/m 9,0 C 9,9 C 4,0 km/h (1 Bft)
17/11/2011 02:50 9,9 C 94 % 1020,1 hPa 0,0 mm 5,4 km/h (2 Bft) SO 225 0 min 0 W/m 9,0 C 9,5 C 7,9 km/h (2 Bft)
17/11/2011 02:55 9,9 C 94 % 1020,1 hPa 0,0 mm 4,7 km/h (1 Bft) SO 225 0 min 0 W/m 9,0 C 9,7 C 9,0 km/h (2 Bft)
17/11/2011 03:00 9,8 C 94 % 1020,1 hPa 0,0 mm 1,4 km/h (1 Bft) S 180 0 min 0 W/m 8,9 C 9,8 C 4,0 km/h (1 Bft)
17/11/2011 03:05 9,8 C 93 % 1020,0 hPa 0,0 mm 2,5 km/h (1 Bft) S-SO 202 0 min 0 W/m 8,7 C 9,8 C 4,0 km/h (1 Bft)
17/11/2011 03:10 9,6 C 93 % 1020,0 hPa 0,0 mm 2,9 km/h (1 Bft) S-SE 157 0 min 0 W/m 8,5 C 9,6 C 4,3 km/h (1 Bft)
17/11/2011 03:15 9,5 C 93 % 1020,0 hPa 0,0 mm 5,0 km/h (1 Bft) S-SO 202 0 min 0 W/m 8,4 C 9,2 C 6,1 km/h (2 Bft)
17/11/2011 03:20 9,5 C 94 % 1020,0 hPa 0,0 mm 4,7 km/h (1 Bft) S-SO 202 0 min 0 W/m 8,6 C 9,3 C 4,7 km/h (1 Bft)
17/11/2011 03:25 9,5 C 94 % 1020,0 hPa 0,0 mm 2,2 km/h (1 Bft) S 180 0 min 0 W/m 8,6 C 9,5 C 6,5 km/h (2 Bft)
17/11/2011 03:30 9,4 C 94 % 1020,0 hPa 0,0 mm 4,3 km/h (1 Bft) SO 225 0 min 0 W/m 8,5 C 9,4 C 11,5 km/h (2 Bft)
17/11/2011 03:35 9,4 C 94 % 1020,0 hPa 0,0 mm 5,4 km/h (2 Bft) S-SO 202 0 min 0 W/m 8,5 C 9,0 C 7,6 km/h (2 Bft)
17/11/2011 03:40 9,4 C 94 % 1020,0 hPa 0,0 mm 5,0 km/h (1 Bft) SO 225 0 min 0 W/m 8,5 C 9,1 C 6,1 km/h (2 Bft)
17/11/2011 03:45 9,5 C 94 % 1020,1 hPa 0,0 mm 2,9 km/h (1 Bft) S-SO 202 0 min 0 W/m 8,6 C 9,5 C 6,5 km/h (2 Bft)
17/11/2011 03:50 9,4 C 94 % 1020,1 hPa 0,0 mm 5,0 km/h (1 Bft) S-SO 202 0 min 0 W/m 8,5 C 9,1 C 9,7 km/h (2 Bft)
17/11/2011 03:55 9,4 C 94 % 1020,1 hPa 0,0 mm 5,4 km/h (2 Bft) S-SO 202 0 min 0 W/m 8,5 C 9,0 C 5,4 km/h (2 Bft)
17/11/2011 04:00 9,4 C 94 % 1020,0 hPa 0,0 mm 4,3 km/h (1 Bft) S-SO 202 0 min 0 W/m 8,5 C 9,4 C 4,3 km/h (1 Bft)
17/11/2011 04:05 9,4 C 94 % 1020,1 hPa 0,0 mm 6,5 km/h (2 Bft) S-SO 202 0 min 0 W/m 8,5 C 8,7 C 8,6 km/h (2 Bft)
17/11/2011 04:10 9,4 C 94 % 1020,2 hPa 0,0 mm 2,9 km/h (1 Bft) S-SE 157 0 min 0 W/m 8,5 C 9,4 C 7,9 km/h (2 Bft)
17/11/2011 04:15 9,4 C 94 % 1020,2 hPa 0,0 mm 2,5 km/h (1 Bft) SO 225 0 min 0 W/m 8,5 C 9,4 C 2,5 km/h (1 Bft)
17/11/2011 04:20 9,4 C 94 % 1020,2 hPa 0,0 mm 4,7 km/h (1 Bft) SO 225 0 min 0 W/m 8,5 C 9,2 C 4,7 km/h (1 Bft)
17/11/2011 04:25 9,4 C 94 % 1020,2 hPa 0,0 mm 5,8 km/h (2 Bft) S-SO 202 0 min 0 W/m 8,5 C 8,8 C 10,1 km/h (2 Bft)
17/11/2011 04:30 9,3 C 94 % 1020,0 hPa 0,0 mm 3,6 km/h (1 Bft) S-SO 202 0 min 0 W/m 8,4 C 9,3 C 6,8 km/h (2 Bft)
17/11/2011 04:35 9,3 C 94 % 1020,2 hPa 0,0 mm 5,0 km/h (1 Bft) SO 225 0 min 0 W/m 8,4 C 9,0 C 8,3 km/h (2 Bft)
17/11/2011 04:40 9,3 C 94 % 1020,1 hPa 0,0 mm 3,2 km/h (1 Bft) S-SO 202 0 min 0 W/m 8,4 C 9,3 C 8,3 km/h (2 Bft)
17/11/2011 04:45 9,3 C 94 % 1020,1 hPa 0,0 mm 4,0 km/h (1 Bft) S-SO 202 0 min 0 W/m 8,4 C 9,3 C 4,0 km/h (1 Bft)
17/11/2011 04:50 9,2 C 94 % 1020,3 hPa 0,0 mm 4,3 km/h (1 Bft) S-SO 202 0 min 0 W/m 8,3 C 9,2 C 7,6 km/h (2 Bft)
17/11/2011 04:55 9,2 C 94 % 1020,3 hPa 0,0 mm 5,8 km/h (2 Bft) SO 225 0 min 0 W/m 8,3 C 8,6 C 7,2 km/h (2 Bft)
17/11/2011 05:00 9,2 C 94 % 1020,3 hPa 0,0 mm 5,0 km/h (1 Bft) S-SE 157 0 min 0 W/m 8,3 C 8,8 C 6,1 km/h (2 Bft)
17/11/2011 05:05 9,2 C 94 % 1020,4 hPa 0,0 mm 3,2 km/h (1 Bft) S-SO 202 0 min 0 W/m 8,3 C 9,2 C 4,7 km/h (1 Bft)
17/11/2011 05:10 9,2 C 94 % 1020,4 hPa 0,0 mm 5,8 km/h (2 Bft) SO 225 0 min 0 W/m 8,3 C 8,6 C 5,8 km/h (2 Bft)
17/11/2011 05:15 9,2 C 94 % 1020,4 hPa 0,0 mm 4,3 km/h (1 Bft) S-SO 202 0 min 0 W/m 8,3 C 9,2 C 6,5 km/h (2 Bft)
17/11/2011 05:20 9,2 C 94 % 1020,5 hPa 0,0 mm 4,3 km/h (1 Bft) S-SO 202 0 min 0 W/m 8,3 C 9,2 C 7,9 km/h (2 Bft)
17/11/2011 05:25 9,2 C 94 % 1020,5 hPa 0,0 mm 3,2 km/h (1 Bft) SO 225 0 min 0 W/m 8,3 C 9,2 C 4,0 km/h (1 Bft)
17/11/2011 05:30 9,3 C 94 % 1020,5 hPa 0,0 mm 3,2 km/h (1 Bft) S 180 0 min 0 W/m 8,4 C 9,3 C 6,5 km/h (2 Bft)
17/11/2011 05:35 9,3 C 94 % 1020,6 hPa 0,0 mm 4,3 km/h (1 Bft) S-SO 202 0 min 0 W/m 8,4 C 9,3 C 4,7 km/h (1 Bft)
17/11/2011 05:40 9,3 C 94 % 1020,6 hPa 0,0 mm 7,6 km/h (2 Bft) SO 225 0 min 0 W/m 8,4 C 8,3 C 10,8 km/h (2 Bft)
17/11/2011 05:45 9,3 C 94 % 1020,7 hPa 0,0 mm 5,8 km/h (2 Bft) S-SO 202 0 min 0 W/m 8,4 C 8,7 C 7,6 km/h (2 Bft)
17/11/2011 05:50 9,3 C 94 % 1020,7 hPa 0,0 mm 3,6 km/h (1 Bft) S-SO 202 0 min 0 W/m 8,4 C 9,3 C 4,3 km/h (1 Bft)
17/11/2011 05:55 9,3 C 94 % 1020,8 hPa 0,0 mm 3,2 km/h (1 Bft) SO 225 0 min 0 W/m 8,4 C 9,3 C 4,7 km/h (1 Bft)
17/11/2011 06:00 9,3 C 94 % 1020,8 hPa 0,0 mm 3,6 km/h (1 Bft) S-SO 202 0 min 0 W/m 8,4 C 9,3 C 7,6 km/h (2 Bft)
17/11/2011 06:05 9,2 C 94 % 1020,8 hPa 0,0 mm 2,5 km/h (1 Bft) SO 225 0 min 0 W/m 8,3 C 9,2 C 6,5 km/h (2 Bft)
17/11/2011 06:10 9,1 C 94 % 1020,9 hPa 0,0 mm 2,9 km/h (1 Bft) S-SO 202 0 min 0 W/m 8,2 C 9,1 C 7,2 km/h (2 Bft)
17/11/2011 06:15 9,1 C 94 % 1020,9 hPa 0,0 mm 2,9 km/h (1 Bft) SO 225 0 min 0 W/m 8,2 C 9,1 C 3,6 km/h (1 Bft)
17/11/2011 06:20 9,0 C 94 % 1020,9 hPa 0,0 mm 4,0 km/h (1 Bft) S-SO 202 0 min 0 W/m 8,1 C 9,0 C 6,5 km/h (2 Bft)
17/11/2011 06:25 9,1 C 94 % 1020,9 hPa 0,0 mm 3,2 km/h (1 Bft) S-SO 202 0 min 0 W/m 8,2 C 9,1 C 4,3 km/h (1 Bft)
17/11/2011 06:30 8,9 C 94 % 1020,9 hPa 0,0 mm 4,7 km/h (1 Bft) SO 225 0 min 0 W/m 8,0 C 8,6 C 6,8 km/h (2 Bft)
17/11/2011 06:35 8,9 C 94 % 1020,9 hPa 0,0 mm 1,8 km/h (1 Bft) S-SO 202 0 min 0 W/m 8,0 C 8,9 C 3,6 km/h (1 Bft)
17/11/2011 06:40 8,9 C 94 % 1021,0 hPa 0,0 mm 3,6 km/h (1 Bft) S-SO 202 0 min 0 W/m 8,0 C 8,9 C 8,3 km/h (2 Bft)
17/11/2011 06:45 8,9 C 94 % 1021,0 hPa 0,0 mm 3,2 km/h (1 Bft) S-SO 202 0 min 0 W/m 8,0 C 8,9 C 4,3 km/h (1 Bft)
17/11/2011 06:50 8,9 C 94 % 1021,0 hPa 0,0 mm 2,2 km/h (1 Bft) S 180 0 min 0 W/m 8,0 C 8,9 C 4,0 km/h (1 Bft)
17/11/2011 06:55 8,9 C 94 % 1021,0 hPa 0,0 mm 4,0 km/h (1 Bft) S-SO 202 0 min 0 W/m 8,0 C 8,9 C 7,2 km/h (2 Bft)
17/11/2011 07:00 8,9 C 94 % 1021,0 hPa 0,0 mm 5,0 km/h (1 Bft) SO 225 0 min 0 W/m 8,0 C 8,5 C 10,1 km/h (2 Bft)
17/11/2011 07:05 9,0 C 94 % 1021,1 hPa 0,0 mm 2,9 km/h (1 Bft) S-SO 202 0 min 0 W/m 8,1 C 9,0 C 3,6 km/h (1 Bft)
17/11/2011 07:10 9,1 C 94 % 1021,1 hPa 0,0 mm 4,0 km/h (1 Bft) S-SO 202 0 min 0 W/m 8,2 C 9,1 C 10,1 km/h (2 Bft)
17/11/2011 07:15 9,1 C 94 % 1021,1 hPa 0,0 mm 5,8 km/h (2 Bft) S-SO 202 0 min 0 W/m 8,2 C 8,5 C 7,2 km/h (2 Bft)
17/11/2011 07:20 9,1 C 94 % 1021,1 hPa 0,0 mm 6,1 km/h (2 Bft) SO 225 0 min 0 W/m 8,2 C 8,4 C 8,6 km/h (2 Bft)
17/11/2011 07:25 9,2 C 94 % 1021,2 hPa 0,0 mm 3,6 km/h (1 Bft) SO 225 0 min 0 W/m 8,3 C 9,2 C 6,5 km/h (2 Bft)
17/11/2011 07:30 9,2 C 94 % 1021,2 hPa 0,0 mm 5,4 km/h (2 Bft) SO 225 0 min 0 W/m 8,3 C 8,7 C 7,2 km/h (2 Bft)
17/11/2011 07:35 9,3 C 94 % 1021,3 hPa 0,0 mm 9,7 km/h (2 Bft) S 180 0 min 0 W/m 8,4 C 7,8 C 11,5 km/h (2 Bft)
17/11/2011 07:40 9,3 C 94 % 1021,2 hPa 0,0 mm 4,7 km/h (1 Bft) SO 225 0 min 0 W/m 8,4 C 9,1 C 8,3 km/h (2 Bft)
17/11/2011 07:45 9,3 C 94 % 1021,3 hPa 0,0 mm 6,1 km/h (2 Bft) SO 225 0 min 0 W/m 8,4 C 8,6 C 10,4 km/h (2 Bft)
17/11/2011 07:50 9,4 C 94 % 1021,2 hPa 0,0 mm 6,1 km/h (2 Bft) SO 225 0 min 0 W/m 8,5 C 8,8 C 6,1 km/h (2 Bft)
17/11/2011 07:55 9,4 C 94 % 1021,3 hPa 0,0 mm 5,4 km/h (2 Bft) S-SO 202 0 min 0 W/m 8,5 C 9,0 C 7,2 km/h (2 Bft)
17/11/2011 08:00 9,5 C 94 % 1021,2 hPa 0,0 mm 3,6 km/h (1 Bft) S-SO 202 0 min 0 W/m 8,6 C 9,5 C 6,1 km/h (2 Bft)
17/11/2011 08:05 9,5 C 94 % 1021,3 hPa 0,0 mm 4,7 km/h (1 Bft) S-SO 202 0 min 0 W/m 8,6 C 9,3 C 8,6 km/h (2 Bft)
17/11/2011 08:10 9,6 C 94 % 1021,3 hPa 0,0 mm 7,6 km/h (2 Bft) S-SO 202 0 min 0 W/m 8,7 C 8,6 C 9,4 km/h (2 Bft)
17/11/2011 08:15 9,6 C 94 % 1021,4 hPa 0,0 mm 3,6 km/h (1 Bft) SO 225 0 min 0 W/m 8,7 C 9,6 C 4,3 km/h (1 Bft)
17/11/2011 08:20 9,7 C 94 % 1021,4 hPa 0,0 mm 3,2 km/h (1 Bft) S-SO 202 0 min 0 W/m 8,8 C 9,7 C 4,7 km/h (1 Bft)
17/11/2011 08:25 9,7 C 93 % 1021,5 hPa 0,0 mm 2,9 km/h (1 Bft) S-SO 202 0 min 0 W/m 8,6 C 9,7 C 4,3 km/h (1 Bft)
17/11/2011 08:30 9,8 C 93 % 1021,5 hPa 0,0 mm 6,1 km/h (2 Bft) S-SO 202 0 min 0 W/m 8,7 C 9,2 C 10,4 km/h (2 Bft)
17/11/2011 08:35 9,8 C 93 % 1021,6 hPa 0,0 mm 6,1 km/h (2 Bft) SO 225 0 min 0 W/m 8,7 C 9,2 C 10,4 km/h (2 Bft)
17/11/2011 08:40 9,9 C 93 % 1021,7 hPa 0,0 mm 4,3 km/h (1 Bft) S-SO 202 0 min 0 W/m 8,8 C 9,9 C 7,2 km/h (2 Bft)
17/11/2011 08:45 10,0 C 93 % 1021,7 hPa 0,0 mm 4,3 km/h (1 Bft) S-SO 202 0 min 0 W/m 8,9 C 10,0 C 5,8 km/h (2 Bft)
17/11/2011 08:50 10,0 C 93 % 1021,8 hPa 0,0 mm 6,1 km/h (2 Bft) SO 225 0 min 0 W/m 8,9 C 9,4 C 6,8 km/h (2 Bft)
17/11/2011 08:55 10,2 C 93 % 1021,9 hPa 0,0 mm 5,0 km/h (1 Bft) SO 225 0 min 0 W/m 9,1 C 10,2 C 8,6 km/h (2 Bft)
17/11/2011 09:00 10,3 C 93 % 1022,0 hPa 0,0 mm 5,8 km/h (2 Bft) SO 225 0 min 0 W/m 9,2 C 10,3 C 9,4 km/h (2 Bft)
17/11/2011 09:05 10,3 C 93 % 1021,9 hPa 0,0 mm 7,6 km/h (2 Bft) SO 225 0 min 0 W/m 9,2 C 10,3 C 7,6 km/h (2 Bft)
17/11/2011 09:10 10,4 C 92 % 1021,9 hPa 0,0 mm 4,0 km/h (1 Bft) SO 225 0 min 0 W/m 9,2 C 10,4 C 7,9 km/h (2 Bft)
17/11/2011 09:15 10,6 C 92 % 1022,0 hPa 0,0 mm 3,2 km/h (1 Bft) S-SO 202 0 min 0 W/m 9,4 C 10,6 C 3,6 km/h (1 Bft)
17/11/2011 09:20 10,9 C 92 % 1022,0 hPa 0,0 mm 5,0 km/h (1 Bft) SO 225 0 min 0 W/m 9,7 C 10,9 C 5,0 km/h (1 Bft)
17/11/2011 09:25 11,4 C 90 % 1022,3 hPa 0,0 mm 4,3 km/h (1 Bft) O-SO 247 0 min 0 W/m 9,8 C 11,4 C 8,3 km/h (2 Bft)
17/11/2011 09:30 11,7 C 89 % 1022,4 hPa 0,0 mm 6,8 km/h (2 Bft) SO 225 0 min 0 W/m 9,9 C 11,7 C 12,6 km/h (3 Bft)
17/11/2011 09:35 11,8 C 87 % 1022,5 hPa 0,0 mm 6,1 km/h (2 Bft) O-SO 247 0 min 0 W/m 9,7 C 11,8 C 7,6 km/h (2 Bft)
17/11/2011 09:40 11,8 C 86 % 1022,6 hPa 0,0 mm 2,5 km/h (1 Bft) O-SO 247 0 min 0 W/m 9,5 C 11,8 C 2,9 km/h (1 Bft)
17/11/2011 09:45 11,8 C 86 % 1022,5 hPa 0,0 mm 5,0 km/h (1 Bft) SO 225 0 min 0 W/m 9,5 C 11,8 C 7,9 km/h (2 Bft)
17/11/2011 09:50 11,5 C 86 % 1022,6 hPa 0,0 mm 5,4 km/h (2 Bft) S-SO 202 0 min 0 W/m 9,2 C 11,5 C 10,4 km/h (2 Bft)
17/11/2011 09:55 11,4 C 87 % 1022,6 hPa 0,0 mm 7,2 km/h (2 Bft) SO 225 0 min 0 W/m 9,3 C 11,4 C 11,2 km/h (2 Bft)
17/11/2011 10:00 11,4 C 88 % 1022,6 hPa 0,0 mm 4,7 km/h (1 Bft) S-SO 202 0 min 0 W/m 9,5 C 11,4 C 8,3 km/h (2 Bft)
17/11/2011 10:05 11,3 C 88 % 1022,6 hPa 0,0 mm 6,5 km/h (2 Bft) SO 225 0 min 0 W/m 9,4 C 11,3 C 6,8 km/h (2 Bft)
17/11/2011 10:10 11,3 C 88 % 1022,6 hPa 0,0 mm 4,0 km/h (1 Bft) S-SO 202 0 min 0 W/m 9,4 C 11,3 C 7,2 km/h (2 Bft)
17/11/2011 10:15 11,2 C 87 % 1022,7 hPa 0,0 mm 3,6 km/h (1 Bft) S-SO 202 0 min 0 W/m 9,1 C 11,2 C 7,2 km/h (2 Bft)
17/11/2011 10:20 11,2 C 87 % 1022,7 hPa 0,0 mm 6,5 km/h (2 Bft) O-SO 247 0 min 0 W/m 9,1 C 11,2 C 7,9 km/h (2 Bft)
17/11/2011 10:25 11,2 C 87 % 1022,6 hPa 0,0 mm 6,1 km/h (2 Bft) S 180 0 min 0 W/m 9,1 C 11,2 C 9,0 km/h (2 Bft)
17/11/2011 10:30 11,2 C 86 % 1022,6 hPa 0,0 mm 4,0 km/h (1 Bft) SO 225 0 min 0 W/m 8,9 C 11,2 C 6,5 km/h (2 Bft)
17/11/2011 10:35 11,2 C 86 % 1022,6 hPa 0,0 mm 2,2 km/h (1 Bft) S 180 0 min 0 W/m 8,9 C 11,2 C 8,3 km/h (2 Bft)
17/11/2011 10:40 11,4 C 86 % 1022,7 hPa 0,0 mm 2,9 km/h (1 Bft) O-SO 247 0 min 0 W/m 9,1 C 11,4 C 3,2 km/h (1 Bft)
17/11/2011 10:45 11,4 C 86 % 1022,8 hPa 0,0 mm 2,9 km/h (1 Bft) SO 225 0 min 0 W/m 9,1 C 11,4 C 6,1 km/h (2 Bft)
17/11/2011 10:50 11,6 C 85 % 1022,9 hPa 0,0 mm 4,0 km/h (1 Bft) S-SO 202 0 min 0 W/m 9,2 C 11,6 C 6,5 km/h (2 Bft)
17/11/2011 10:55 12,0 C 86 % 1023,1 hPa 0,0 mm 1,8 km/h (1 Bft) SO 225 0 min 0 W/m 9,7 C 12,0 C 6,5 km/h (2 Bft)
17/11/2011 11:00 12,4 C 85 % 1023,1 hPa 0,0 mm 2,5 km/h (1 Bft) SO 225 0 min 0 W/m 9,9 C 12,4 C 7,6 km/h (2 Bft)
17/11/2011 11:05 12,9 C 81 % 1023,1 hPa 0,0 mm 6,5 km/h (2 Bft) S-SO 202 0 min 0 W/m 9,7 C 12,9 C 10,1 km/h (2 Bft)
17/11/2011 11:10 13,4 C 81 % 1023,2 hPa 0,0 mm 5,4 km/h (2 Bft) SO 225 0 min 0 W/m 10,2 C 13,4 C 9,7 km/h (2 Bft)
17/11/2011 11:15 13,8 C 78 % 1023,2 hPa 0,0 mm 6,8 km/h (2 Bft) S-SO 202 0 min 0 W/m 10,0 C 13,8 C 9,0 km/h (2 Bft)
17/11/2011 11:20 13,6 C 77 % 1023,2 hPa 0,0 mm 2,5 km/h (1 Bft) O-SO 247 0 min 0 W/m 9,6 C 13,6 C 7,9 km/h (2 Bft)
17/11/2011 11:25 13,4 C 78 % 1023,3 hPa 0,0 mm 4,7 km/h (1 Bft) SO 225 0 min 0 W/m 9,6 C 13,4 C 10,1 km/h (2 Bft)
17/11/2011 11:30 13,6 C 78 % 1023,2 hPa 0,0 mm 4,3 km/h (1 Bft) SO 225 0 min 0 W/m 9,8 C 13,6 C 7,2 km/h (2 Bft)
17/11/2011 11:35 13,9 C 79 % 1023,3 hPa 0,0 mm 2,2 km/h (1 Bft) O 270 0 min 0 W/m 10,3 C 13,9 C 4,3 km/h (1 Bft)
17/11/2011 11:40 14,3 C 76 % 1023,3 hPa 0,0 mm 3,2 km/h (1 Bft) O-SO 247 0 min 0 W/m 10,1 C 14,3 C 4,3 km/h (1 Bft)
17/11/2011 11:45 14,4 C 73 % 1023,2 hPa 0,0 mm 7,2 km/h (2 Bft) S-SO 202 0 min 0 W/m 9,6 C 14,4 C 11,2 km/h (2 Bft)
17/11/2011 11:50 14,7 C 74 % 1023,3 hPa 0,0 mm 4,3 km/h (1 Bft) SO 225 0 min 0 W/m 10,1 C 14,7 C 9,0 km/h (2 Bft)
17/11/2011 11:55 14,9 C 73 % 1023,3 hPa 0,0 mm 1,8 km/h (1 Bft) O-SO 247 0 min 0 W/m 10,1 C 14,9 C 2,9 km/h (1 Bft)
17/11/2011 12:00 15,2 C 72 % 1023,3 hPa 0,0 mm 6,1 km/h (2 Bft) SO 225 0 min 0 W/m 10,2 C 15,2 C 9,7 km/h (2 Bft)
17/11/2011 12:05 15,2 C 72 % 1023,4 hPa 0,0 mm 5,8 km/h (2 Bft) O 270 0 min 0 W/m 10,2 C 15,2 C 11,5 km/h (2 Bft)
17/11/2011 12:10 15,3 C 72 % 1023,4 hPa 0,0 mm 2,5 km/h (1 Bft) SO 225 0 min 0 W/m 10,3 C 15,3 C 6,5 km/h (2 Bft)
17/11/2011 12:15 15,5 C 72 % 1023,5 hPa 0,0 mm 2,9 km/h (1 Bft) SO 225 0 min 0 W/m 10,5 C 15,5 C 7,6 km/h (2 Bft)
17/11/2011 12:20 15,8 C 71 % 1023,6 hPa 0,0 mm 1,4 km/h (1 Bft) SO 225 0 min 0 W/m 10,6 C 15,8 C 6,1 km/h (2 Bft)
17/11/2011 12:25 15,8 C 70 % 1023,6 hPa 0,0 mm 4,7 km/h (1 Bft) SO 225 0 min 0 W/m 10,3 C 15,8 C 9,7 km/h (2 Bft)
17/11/2011 12:30 15,7 C 71 % 1023,6 hPa 0,0 mm 1,1 km/h (1 Bft) SO 225 0 min 0 W/m 10,5 C 15,7 C 4,0 km/h (1 Bft)
17/11/2011 12:35 15,6 C 71 % 1023,5 hPa 0,0 mm 1,1 km/h (1 Bft) SO 225 0 min 0 W/m 10,4 C 15,6 C 1,1 km/h (1 Bft)
17/11/2011 12:40 15,4 C 71 % 1023,5 hPa 0,0 mm 3,2 km/h (1 Bft) SO 225 0 min 0 W/m 10,2 C 15,4 C 9,4 km/h (2 Bft)
17/11/2011 12:45 15,5 C 71 % 1023,5 hPa 0,0 mm 3,6 km/h (1 Bft) S-SO 202 0 min 0 W/m 10,3 C 15,5 C 7,2 km/h (2 Bft)
17/11/2011 12:50 15,4 C 70 % 1023,4 hPa 0,0 mm 6,8 km/h (2 Bft) SO 225 0 min 0 W/m 10,0 C 15,4 C 8,6 km/h (2 Bft)
17/11/2011 12:55 15,4 C 72 % 1023,5 hPa 0,0 mm 0,4 km/h (0 Bft) O-SO 247 0 min 0 W/m 10,4 C 15,4 C 3,2 km/h (1 Bft)
17/11/2011 13:00 15,5 C 71 % 1023,5 hPa 0,0 mm 0,0 km/h (0 Bft) S-SO 202 0 min 0 W/m 10,3 C 15,5 C 3,2 km/h (1 Bft)
17/11/2011 13:05 15,6 C 70 % 1023,4 hPa 0,0 mm 2,2 km/h (1 Bft) O-SO 247 0 min 0 W/m 10,1 C 15,6 C 4,7 km/h (1 Bft)
17/11/2011 13:10 15,6 C 70 % 1023,4 hPa 0,0 mm 1,4 km/h (1 Bft) SO 225 0 min 0 W/m 10,1 C 15,6 C 3,2 km/h (1 Bft)
17/11/2011 13:15 15,8 C 70 % 1023,3 hPa 0,0 mm 1,8 km/h (1 Bft) O-SO 247 0 min 0 W/m 10,3 C 15,8 C 7,2 km/h (2 Bft)
17/11/2011 13:20 15,9 C 69 % 1023,3 hPa 0,0 mm 0,7 km/h (0 Bft) SO 225 0 min 0 W/m 10,2 C 15,9 C 0,7 km/h (0 Bft)
17/11/2011 13:25 15,9 C 68 % 1023,2 hPa 0,0 mm 1,8 km/h (1 Bft) SO 225 0 min 0 W/m 10,0 C 15,9 C 4,0 km/h (1 Bft)
17/11/2011 13:30 16,0 C 68 % 1023,3 hPa 0,0 mm 0,7 km/h (0 Bft) O-NO 292 0 min 0 W/m 10,1 C 16,0 C 0,7 km/h (0 Bft)
17/11/2011 13:35 16,0 C 66 % 1023,4 hPa 0,0 mm 6,5 km/h (2 Bft) S-SO 202 0 min 0 W/m 9,7 C 16,0 C 10,1 km/h (2 Bft)
17/11/2011 13:40 15,8 C 67 % 1023,2 hPa 0,0 mm 1,8 km/h (1 Bft) SO 225 0 min 0 W/m 9,7 C 15,8 C 1,8 km/h (1 Bft)
17/11/2011 13:45 15,6 C 68 % 1023,1 hPa 0,0 mm 1,8 km/h (1 Bft) O-SO 247 0 min 0 W/m 9,7 C 15,6 C 4,0 km/h (1 Bft)
17/11/2011 13:50 15,6 C 67 % 1023,2 hPa 0,0 mm 3,6 km/h (1 Bft) SO 225 0 min 0 W/m 9,5 C 15,6 C 6,8 km/h (2 Bft)
17/11/2011 13:55 15,5 C 68 % 1023,1 hPa 0,0 mm 1,1 km/h (1 Bft) O-NO 292 0 min 0 W/m 9,6 C 15,5 C 1,1 km/h (1 Bft)
17/11/2011 14:00 15,6 C 63 % 1023,1 hPa 0,0 mm 3,2 km/h (1 Bft) SO 225 0 min 0 W/m 8,6 C 15,6 C 7,6 km/h (2 Bft)
17/11/2011 14:05 15,6 C 64 % 1023,0 hPa 0,0 mm 5,0 km/h (1 Bft) SO 225 0 min 0 W/m 8,8 C 15,6 C 7,2 km/h (2 Bft)
17/11/2011 14:10 15,6 C 65 % 1023,0 hPa 0,0 mm 3,2 km/h (1 Bft) S-SO 202 0 min 0 W/m 9,0 C 15,6 C 4,3 km/h (1 Bft)
17/11/2011 14:15 15,8 C 64 % 1022,8 hPa 0,0 mm 2,9 km/h (1 Bft) S-SO 202 0 min 0 W/m 9,0 C 15,8 C 6,1 km/h (2 Bft)
17/11/2011 14:20 15,8 C 64 % 1022,9 hPa 0,0 mm 6,8 km/h (2 Bft) S-SO 202 0 min 0 W/m 9,0 C 15,8 C 7,2 km/h (2 Bft)
17/11/2011 14:25 15,8 C 65 % 1022,8 hPa 0,0 mm 1,8 km/h (1 Bft) O-SO 247 0 min 0 W/m 9,2 C 15,8 C 4,0 km/h (1 Bft)
17/11/2011 14:30 15,8 C 64 % 1022,7 hPa 0,0 mm 4,0 km/h (1 Bft) SO 225 0 min 0 W/m 9,0 C 15,8 C 7,9 km/h (2 Bft)
17/11/2011 14:35 15,7 C 66 % 1022,7 hPa 0,0 mm 2,5 km/h (1 Bft) O-NO 292 0 min 0 W/m 9,4 C 15,7 C 6,1 km/h (2 Bft)
17/11/2011 14:40 15,6 C 64 % 1022,7 hPa 0,0 mm 4,0 km/h (1 Bft) SO 225 0 min 0 W/m 8,8 C 15,6 C 7,6 km/h (2 Bft)
17/11/2011 14:45 15,3 C 64 % 1022,7 hPa 0,0 mm 2,9 km/h (1 Bft) SO 225 0 min 0 W/m 8,5 C 15,3 C 3,2 km/h (1 Bft)
17/11/2011 14:50 14,9 C 66 % 1022,7 hPa 0,0 mm 0,0 km/h (0 Bft) SO 225 0 min 0 W/m 8,6 C 14,9 C 0,0 km/h (0 Bft)
17/11/2011 14:55 14,8 C 68 % 1022,6 hPa 0,0 mm 0,0 km/h (0 Bft) O-SO 247 0 min 0 W/m 9,0 C 14,8 C 0,0 km/h (0 Bft)
17/11/2011 15:00 14,8 C 68 % 1022,6 hPa 0,0 mm 0,0 km/h (0 Bft) O 270 0 min 0 W/m 9,0 C 14,8 C 0,0 km/h (0 Bft)
17/11/2011 15:05 14,8 C 69 % 1022,6 hPa 0,0 mm 0,0 km/h (0 Bft) O 270 0 min 0 W/m 9,2 C 14,8 C 0,0 km/h (0 Bft)
17/11/2011 15:10 14,8 C 69 % 1022,5 hPa 0,0 mm 0,0 km/h (0 Bft) O-SO 247 0 min 0 W/m 9,2 C 14,8 C 7,2 km/h (2 Bft)
17/11/2011 15:15 15,0 C 65 % 1022,4 hPa 0,0 mm 0,7 km/h (0 Bft) O-SO 247 0 min 0 W/m 8,5 C 15,0 C 0,7 km/h (0 Bft)
17/11/2011 15:20 15,1 C 63 % 1022,4 hPa 0,0 mm 2,5 km/h (1 Bft) S-SO 202 0 min 0 W/m 8,1 C 15,1 C 7,9 km/h (2 Bft)
17/11/2011 15:25 15,1 C 63 % 1022,4 hPa 0,0 mm 5,4 km/h (2 Bft) SO 225 0 min 0 W/m 8,1 C 15,1 C 9,0 km/h (2 Bft)
17/11/2011 15:30 15,1 C 63 % 1022,4 hPa 0,0 mm 2,5 km/h (1 Bft) O-SO 247 0 min 0 W/m 8,1 C 15,1 C 2,9 km/h (1 Bft)
17/11/2011 15:35 15,1 C 64 % 1022,3 hPa 0,0 mm 0,0 km/h (0 Bft) SO 225 0 min 0 W/m 8,3 C 15,1 C 3,2 km/h (1 Bft)
17/11/2011 15:40 14,9 C 63 % 1022,3 hPa 0,0 mm 4,0 km/h (1 Bft) O 270 0 min 0 W/m 7,9 C 14,9 C 8,6 km/h (2 Bft)
17/11/2011 15:45 14,9 C 63 % 1022,3 hPa 0,0 mm 0,0 km/h (0 Bft) O-SO 247 0 min 0 W/m 7,9 C 14,9 C 3,6 km/h (1 Bft)
17/11/2011 15:50 14,9 C 63 % 1022,3 hPa 0,0 mm 1,4 km/h (1 Bft) S 180 0 min 0 W/m 7,9 C 14,9 C 3,6 km/h (1 Bft)
17/11/2011 15:55 14,8 C 62 % 1022,4 hPa 0,0 mm 2,2 km/h (1 Bft) SO 225 0 min 0 W/m 7,6 C 14,8 C 4,3 km/h (1 Bft)
17/11/2011 16:00 14,6 C 64 % 1022,4 hPa 0,0 mm 4,0 km/h (1 Bft) O-SO 247 0 min 0 W/m 7,9 C 14,6 C 4,3 km/h (1 Bft)
17/11/2011 16:05 14,5 C 66 % 1022,4 hPa 0,0 mm 0,7 km/h (0 Bft) O-SO 247 0 min 0 W/m 8,2 C 14,5 C 2,9 km/h (1 Bft)
17/11/2011 16:10 14,3 C 66 % 1022,4 hPa 0,0 mm 3,2 km/h (1 Bft) SO 225 0 min 0 W/m 8,0 C 14,3 C 3,6 km/h (1 Bft)
17/11/2011 16:15 14,1 C 68 % 1022,4 hPa 0,0 mm 0,4 km/h (0 Bft) SO 225 0 min 0 W/m 8,3 C 14,1 C 2,9 km/h (1 Bft)
17/11/2011 16:20 13,9 C 69 % 1022,5 hPa 0,0 mm 2,2 km/h (1 Bft) SO 225 0 min 0 W/m 8,3 C 13,9 C 4,0 km/h (1 Bft)
17/11/2011 16:25 13,8 C 69 % 1022,4 hPa 0,0 mm 0,0 km/h (0 Bft) SO 225 0 min 0 W/m 8,2 C 13,8 C 0,0 km/h (0 Bft)
17/11/2011 16:30 13,8 C 69 % 1022,4 hPa 0,0 mm 1,8 km/h (1 Bft) SO 225 0 min 0 W/m 8,2 C 13,8 C 4,0 km/h (1 Bft)
17/11/2011 16:35 13,8 C 69 % 1022,4 hPa 0,0 mm 2,5 km/h (1 Bft) SO 225 0 min 0 W/m 8,2 C 13,8 C 4,3 km/h (1 Bft)
17/11/2011 16:40 13,8 C 69 % 1022,3 hPa 0,0 mm 0,0 km/h (0 Bft) O-SO 247 0 min 0 W/m 8,2 C 13,8 C 0,0 km/h (0 Bft)
17/11/2011 16:45 13,7 C 69 % 1022,4 hPa 0,0 mm 0,7 km/h (0 Bft) SO 225 0 min 0 W/m 8,1 C 13,7 C 3,6 km/h (1 Bft)
17/11/2011 16:50 13,6 C 69 % 1022,3 hPa 0,0 mm 0,0 km/h (0 Bft) SO 225 0 min 0 W/m 8,0 C 13,6 C 0,0 km/h (0 Bft)
17/11/2011 16:55 13,4 C 70 % 1022,4 hPa 0,0 mm 0,4 km/h (0 Bft) S-SO 202 0 min 0 W/m 8,0 C 13,4 C 0,4 km/h (0 Bft)
17/11/2011 17:00 13,2 C 69 % 1022,4 hPa 0,0 mm 0,7 km/h (0 Bft) SO 225 0 min 0 W/m 7,6 C 13,2 C 4,0 km/h (1 Bft)
17/11/2011 17:05 12,9 C 70 % 1022,5 hPa 0,0 mm 1,1 km/h (1 Bft) O-SO 247 0 min 0 W/m 7,6 C 12,9 C 4,0 km/h (1 Bft)
17/11/2011 17:10 12,7 C 70 % 1022,5 hPa 0,0 mm 0,0 km/h (0 Bft) SO 225 0 min 0 W/m 7,4 C 12,7 C 0,0 km/h (0 Bft)
17/11/2011 17:15 12,4 C 71 % 1022,4 hPa 0,0 mm 0,0 km/h (0 Bft) S-SO 202 0 min 0 W/m 7,3 C 12,4 C 0,0 km/h (0 Bft)
17/11/2011 17:20 12,1 C 72 % 1022,4 hPa 0,0 mm 0,0 km/h (0 Bft) S-SO 202 0 min 0 W/m 7,2 C 12,1 C 0,0 km/h (0 Bft)
17/11/2011 17:25 11,9 C 72 % 1022,4 hPa 0,0 mm 0,0 km/h (0 Bft) S-SO 202 0 min 0 W/m 7,0 C 11,9 C 0,0 km/h (0 Bft)
17/11/2011 17:30 11,6 C 73 % 1022,3 hPa 0,0 mm 0,0 km/h (0 Bft) S-SO 202 0 min 0 W/m 6,9 C 11,6 C 0,0 km/h (0 Bft)
17/11/2011 17:35 11,4 C 73 % 1022,2 hPa 0,0 mm 0,0 km/h (0 Bft) S-SO 202 0 min 0 W/m 6,7 C 11,4 C 0,0 km/h (0 Bft)
17/11/2011 17:40 11,1 C 74 % 1022,2 hPa 0,0 mm 0,0 km/h (0 Bft) S 180 0 min 0 W/m 6,6 C 11,1 C 0,0 km/h (0 Bft)
17/11/2011 17:45 10,8 C 75 % 1022,2 hPa 0,0 mm 0,0 km/h (0 Bft) S 180 0 min 0 W/m 6,5 C 10,8 C 0,0 km/h (0 Bft)
17/11/2011 17:50 10,6 C 76 % 1022,1 hPa 0,0 mm 0,0 km/h (0 Bft) N 360 0 min 0 W/m 6,5 C 10,6 C 0,0 km/h (0 Bft)
17/11/2011 17:55 10,3 C 76 % 1022,2 hPa 0,0 mm 0,0 km/h (0 Bft) S-SO 202 0 min 0 W/m 6,3 C 10,3 C 0,0 km/h (0 Bft)
17/11/2011 18:00 10,1 C 76 % 1022,3 hPa 0,0 mm 0,0 km/h (0 Bft) S-SO 202 0 min 0 W/m 6,1 C 10,1 C 0,0 km/h (0 Bft)
17/11/2011 18:05 9,8 C 77 % 1022,3 hPa 0,0 mm 0,0 km/h (0 Bft) S-SO 202 0 min 0 W/m 6,0 C 9,8 C 0,0 km/h (0 Bft)
17/11/2011 18:10 9,6 C 78 % 1022,3 hPa 0,0 mm 0,0 km/h (0 Bft) S-SO 202 0 min 0 W/m 6,0 C 9,6 C 0,0 km/h (0 Bft)
17/11/2011 18:15 9,4 C 79 % 1022,3 hPa 0,0 mm 0,0 km/h (0 Bft) S-SO 202 0 min 0 W/m 5,9 C 9,4 C 0,0 km/h (0 Bft)
17/11/2011 18:20 9,2 C 79 % 1022,3 hPa 0,0 mm 0,0 km/h (0 Bft) S-SO 202 0 min 0 W/m 5,8 C 9,2 C 0,0 km/h (0 Bft)
17/11/2011 18:25 9,1 C 80 % 1022,3 hPa 0,0 mm 0,0 km/h (0 Bft) S-SO 202 0 min 0 W/m 5,8 C 9,1 C 0,0 km/h (0 Bft)
17/11/2011 18:30 8,8 C 80 % 1022,4 hPa 0,0 mm 0,0 km/h (0 Bft) S-SO 202 0 min 0 W/m 5,5 C 8,8 C 0,0 km/h (0 Bft)
17/11/2011 18:35 8,6 C 80 % 1022,5 hPa 0,0 mm 0,0 km/h (0 Bft) S 180 0 min 0 W/m 5,3 C 8,6 C 0,0 km/h (0 Bft)
17/11/2011 18:40 8,6 C 82 % 1022,5 hPa 0,0 mm 0,0 km/h (0 Bft) S 180 0 min 0 W/m 5,7 C 8,6 C 0,0 km/h (0 Bft)
17/11/2011 18:45 8,5 C 83 % 1022,5 hPa 0,0 mm 0,0 km/h (0 Bft) S 180 0 min 0 W/m 5,8 C 8,5 C 0,0 km/h (0 Bft)
17/11/2011 18:50 8,4 C 82 % 1022,6 hPa 0,0 mm 0,0 km/h (0 Bft) S 180 0 min 0 W/m 5,5 C 8,4 C 0,0 km/h (0 Bft)
17/11/2011 18:55 8,3 C 82 % 1022,5 hPa 0,0 mm 0,0 km/h (0 Bft) S 180 0 min 0 W/m 5,4 C 8,3 C 0,0 km/h (0 Bft)
17/11/2011 19:00 8,1 C 83 % 1022,5 hPa 0,0 mm 0,0 km/h (0 Bft) S 180 0 min 0 W/m 5,4 C 8,1 C 0,0 km/h (0 Bft)
17/11/2011 19:05 7,9 C 83 % 1022,5 hPa 0,0 mm 0,0 km/h (0 Bft) S 180 0 min 0 W/m 5,2 C 7,9 C 0,0 km/h (0 Bft)
17/11/2011 19:10 7,8 C 83 % 1022,5 hPa 0,0 mm 0,0 km/h (0 Bft) S 180 0 min 0 W/m 5,1 C 7,8 C 0,0 km/h (0 Bft)
17/11/2011 19:15 7,7 C 83 % 1022,6 hPa 0,0 mm 0,0 km/h (0 Bft) S 180 0 min 0 W/m 5,0 C 7,7 C 0,0 km/h (0 Bft)
17/11/2011 19:20 7,5 C 83 % 1022,6 hPa 0,0 mm 0,0 km/h (0 Bft) S 180 0 min 0 W/m 4,8 C 7,5 C 0,0 km/h (0 Bft)
17/11/2011 19:25 7,4 C 83 % 1022,5 hPa 0,0 mm 0,0 km/h (0 Bft) S 180 0 min 0 W/m 4,7 C 7,4 C 0,0 km/h (0 Bft)
17/11/2011 19:30 7,3 C 84 % 1022,5 hPa 0,0 mm 0,0 km/h (0 Bft) S 180 0 min 0 W/m 4,8 C 7,3 C 0,0 km/h (0 Bft)
17/11/2011 19:35 7,3 C 85 % 1022,6 hPa 0,0 mm 0,4 km/h (0 Bft) E-NE 67 0 min 0 W/m 4,9 C 7,3 C 0,4 km/h (0 Bft)
17/11/2011 19:40 7,3 C 85 % 1022,7 hPa 0,0 mm 0,0 km/h (0 Bft) E-SE 112 0 min 0 W/m 4,9 C 7,3 C 0,0 km/h (0 Bft)
17/11/2011 19:45 7,4 C 85 % 1022,6 hPa 0,0 mm 0,0 km/h (0 Bft) E-SE 112 0 min 0 W/m 5,0 C 7,4 C 0,0 km/h (0 Bft)
17/11/2011 19:50 7,6 C 85 % 1022,6 hPa 0,0 mm 0,4 km/h (0 Bft) E-SE 112 0 min 0 W/m 5,2 C 7,6 C 3,2 km/h (1 Bft)
17/11/2011 19:55 7,8 C 85 % 1022,6 hPa 0,0 mm 0,7 km/h (0 Bft) E-SE 112 0 min 0 W/m 5,4 C 7,8 C 0,7 km/h (0 Bft)
17/11/2011 20:00 7,8 C 85 % 1022,7 hPa 0,0 mm 0,4 km/h (0 Bft) E 90 0 min 0 W/m 5,4 C 7,8 C 0,4 km/h (0 Bft)
17/11/2011 20:05 7,9 C 86 % 1022,7 hPa 0,0 mm 0,0 km/h (0 Bft) SE 135 0 min 0 W/m 5,7 C 7,9 C 0,0 km/h (0 Bft)
17/11/2011 20:10 8,0 C 86 % 1022,6 hPa 0,0 mm 0,4 km/h (0 Bft) E 90 0 min 0 W/m 5,8 C 8,0 C 3,6 km/h (1 Bft)
17/11/2011 20:15 8,0 C 86 % 1022,6 hPa 0,0 mm 0,0 km/h (0 Bft) E 90 0 min 0 W/m 5,8 C 8,0 C 0,0 km/h (0 Bft)
17/11/2011 20:20 7,9 C 86 % 1022,6 hPa 0,0 mm 0,0 km/h (0 Bft) E 90 0 min 0 W/m 5,7 C 7,9 C 0,0 km/h (0 Bft)
17/11/2011 20:25 7,9 C 86 % 1022,7 hPa 0,0 mm 0,0 km/h (0 Bft) SE 135 0 min 0 W/m 5,7 C 7,9 C 0,0 km/h (0 Bft)
17/11/2011 20:30 7,9 C 86 % 1022,6 hPa 0,0 mm 0,0 km/h (0 Bft) SE 135 0 min 0 W/m 5,7 C 7,9 C 0,0 km/h (0 Bft)
17/11/2011 20:35 7,9 C 87 % 1022,5 hPa 0,0 mm 0,0 km/h (0 Bft) E 90 0 min 0 W/m 5,9 C 7,9 C 0,0 km/h (0 Bft)
17/11/2011 20:40 7,9 C 86 % 1022,6 hPa 0,0 mm 0,0 km/h (0 Bft) E 90 0 min 0 W/m 5,7 C 7,9 C 0,0 km/h (0 Bft)
17/11/2011 20:45 7,8 C 86 % 1022,5 hPa 0,0 mm 0,0 km/h (0 Bft) E 90 0 min 0 W/m 5,6 C 7,8 C 0,0 km/h (0 Bft)
17/11/2011 20:50 7,8 C 86 % 1022,7 hPa 0,0 mm 0,0 km/h (0 Bft) E 90 0 min 0 W/m 5,6 C 7,8 C 0,0 km/h (0 Bft)
17/11/2011 20:55 7,6 C 86 % 1022,7 hPa 0,0 mm 0,0 km/h (0 Bft) E 90 0 min 0 W/m 5,4 C 7,6 C 0,0 km/h (0 Bft)
17/11/2011 21:00 7,4 C 86 % 1022,6 hPa 0,0 mm 0,0 km/h (0 Bft) E 90 0 min 0 W/m 5,2 C 7,4 C 0,0 km/h (0 Bft)
17/11/2011 21:05 7,3 C 86 % 1022,6 hPa 0,0 mm 0,0 km/h (0 Bft) E-SE 112 0 min 0 W/m 5,1 C 7,3 C 0,0 km/h (0 Bft)
17/11/2011 21:10 7,1 C 86 % 1022,7 hPa 0,0 mm 0,0 km/h (0 Bft) E-SE 112 0 min 0 W/m 4,9 C 7,1 C 0,0 km/h (0 Bft)
17/11/2011 21:15 7,0 C 87 % 1022,6 hPa 0,0 mm 0,0 km/h (0 Bft) E-SE 112 0 min 0 W/m 5,0 C 7,0 C 0,0 km/h (0 Bft)
17/11/2011 21:20 6,9 C 87 % 1022,7 hPa 0,0 mm 0,0 km/h (0 Bft) SE 135 0 min 0 W/m 4,9 C 6,9 C 0,0 km/h (0 Bft)
17/11/2011 21:25 6,9 C 87 % 1022,7 hPa 0,0 mm 0,0 km/h (0 Bft) E 90 0 min 0 W/m 4,9 C 6,9 C 3,2 km/h (1 Bft)
17/11/2011 21:30 6,8 C 87 % 1022,6 hPa 0,0 mm 0,0 km/h (0 Bft) E 90 0 min 0 W/m 4,8 C 6,8 C 2,9 km/h (1 Bft)
17/11/2011 21:35 6,8 C 87 % 1022,6 hPa 0,0 mm 2,9 km/h (1 Bft) E-SE 112 0 min 0 W/m 4,8 C 6,8 C 4,0 km/h (1 Bft)
17/11/2011 21:40 6,9 C 87 % 1022,7 hPa 0,0 mm 0,0 km/h (0 Bft) E-SE 112 0 min 0 W/m 4,9 C 6,9 C 0,0 km/h (0 Bft)
17/11/2011 21:45 6,9 C 87 % 1022,8 hPa 0,0 mm 2,2 km/h (1 Bft) E 90 0 min 0 W/m 4,9 C 6,9 C 4,3 km/h (1 Bft)
17/11/2011 21:50 6,8 C 87 % 1022,8 hPa 0,0 mm 0,4 km/h (0 Bft) E 90 0 min 0 W/m 4,8 C 6,8 C 3,2 km/h (1 Bft)
17/11/2011 21:55 6,8 C 87 % 1022,8 hPa 0,0 mm 0,0 km/h (0 Bft) E 90 0 min 0 W/m 4,8 C 6,8 C 0,0 km/h (0 Bft)
17/11/2011 22:00 6,6 C 87 % 1022,8 hPa 0,0 mm 0,0 km/h (0 Bft) E 90 0 min 0 W/m 4,6 C 6,6 C 3,2 km/h (1 Bft)
17/11/2011 22:05 6,5 C 88 % 1022,8 hPa 0,0 mm 0,0 km/h (0 Bft) E 90 0 min 0 W/m 4,7 C 6,5 C 0,0 km/h (0 Bft)
17/11/2011 22:10 6,4 C 88 % 1022,8 hPa 0,0 mm 1,1 km/h (1 Bft) E-NE 67 0 min 0 W/m 4,6 C 6,4 C 3,6 km/h (1 Bft)
17/11/2011 22:15 6,3 C 88 % 1022,8 hPa 0,0 mm 0,7 km/h (0 Bft) E-SE 112 0 min 0 W/m 4,5 C 6,3 C 4,0 km/h (1 Bft)
17/11/2011 22:20 6,3 C 88 % 1022,7 hPa 0,0 mm 0,4 km/h (0 Bft) E-SE 112 0 min 0 W/m 4,5 C 6,3 C 4,0 km/h (1 Bft)
17/11/2011 22:25 6,3 C 89 % 1022,7 hPa 0,0 mm 0,7 km/h (0 Bft) SE 135 0 min 0 W/m 4,6 C 6,3 C 2,9 km/h (1 Bft)
17/11/2011 22:30 6,3 C 89 % 1022,7 hPa 0,0 mm 2,2 km/h (1 Bft) E-SE 112 0 min 0 W/m 4,6 C 6,3 C 5,8 km/h (2 Bft)
17/11/2011 22:35 6,2 C 89 % 1022,7 hPa 0,0 mm 0,7 km/h (0 Bft) E 90 0 min 0 W/m 4,5 C 6,2 C 6,5 km/h (2 Bft)
17/11/2011 22:40 6,2 C 89 % 1022,6 hPa 0,0 mm 1,1 km/h (1 Bft) E-NE 67 0 min 0 W/m 4,5 C 6,2 C 3,2 km/h (1 Bft)
17/11/2011 22:45 6,1 C 89 % 1022,5 hPa 0,0 mm 1,8 km/h (1 Bft) E-SE 112 0 min 0 W/m 4,4 C 6,1 C 4,7 km/h (1 Bft)
17/11/2011 22:50 6,1 C 89 % 1022,5 hPa 0,0 mm 0,4 km/h (0 Bft) E 90 0 min 0 W/m 4,4 C 6,1 C 0,4 km/h (0 Bft)
17/11/2011 22:55 6,1 C 89 % 1022,5 hPa 0,0 mm 0,0 km/h (0 Bft) E-SE 112 0 min 0 W/m 4,4 C 6,1 C 0,0 km/h (0 Bft)
17/11/2011 23:00 6,0 C 89 % 1022,5 hPa 0,0 mm 0,0 km/h (0 Bft) E-SE 112 0 min 0 W/m 4,3 C 6,0 C 0,0 km/h (0 Bft)
17/11/2011 23:05 5,9 C 89 % 1022,4 hPa 0,0 mm 1,4 km/h (1 Bft) SE 135 0 min 0 W/m 4,2 C 5,9 C 4,0 km/h (1 Bft)
17/11/2011 23:10 5,9 C 89 % 1022,3 hPa 0,0 mm 1,4 km/h (1 Bft) N 360 0 min 0 W/m 4,2 C 5,9 C 1,4 km/h (1 Bft)
17/11/2011 23:15 5,9 C 89 % 1022,3 hPa 0,0 mm 0,0 km/h (0 Bft) E-SE 112 0 min 0 W/m 4,2 C 5,9 C 3,6 km/h (1 Bft)
17/11/2011 23:20 5,8 C 89 % 1022,2 hPa 0,0 mm 0,0 km/h (0 Bft) SE 135 0 min 0 W/m 4,1 C 5,8 C 0,0 km/h (0 Bft)
17/11/2011 23:25 5,8 C 89 % 1022,2 hPa 0,0 mm 2,5 km/h (1 Bft) E-SE 112 0 min 0 W/m 4,1 C 5,8 C 6,5 km/h (2 Bft)
17/11/2011 23:30 5,8 C 90 % 1022,1 hPa 0,0 mm 0,4 km/h (0 Bft) SE 135 0 min 0 W/m 4,3 C 5,8 C 0,4 km/h (0 Bft)
17/11/2011 23:35 5,7 C 90 % 1022,2 hPa 0,0 mm 0,7 km/h (0 Bft) SE 135 0 min 0 W/m 4,2 C 5,7 C 4,0 km/h (1 Bft)
17/11/2011 23:40 5,6 C 89 % 1022,1 hPa 0,0 mm 1,8 km/h (1 Bft) E-SE 112 0 min 0 W/m 3,9 C 5,6 C 6,1 km/h (2 Bft)
17/11/2011 23:45 5,5 C 90 % 1022,1 hPa 0,0 mm 0,0 km/h (0 Bft) E-SE 112 0 min 0 W/m 4,0 C 5,5 C 0,0 km/h (0 Bft)
17/11/2011 23:50 5,4 C 90 % 1022,0 hPa 0,0 mm 2,5 km/h (1 Bft) E 90 0 min 0 W/m 3,9 C 5,4 C 5,8 km/h (2 Bft)
17/11/2011 23:55 5,4 C 90 % 1022,1 hPa 0,0 mm 2,2 km/h (1 Bft) E-SE 112 0 min 0 W/m 3,9 C 5,4 C 2,2 km/h (1 Bft)
_ Min-Heure 23:55 15:55 00:00 - 23:45 - - - - 23:55 23:55 23:45
Minimum _ 5,4 C 62 % 1019,2 hPa - 0,0 km/h (0 Bft) - - - - 3,9 C 5,4 C 0,0 km/h (0 Bft)
_ Max-Heure 13:35 08:20 12:30 23:55 07:35 - - 23:55 23:55 12:20 13:35 09:30
Maximum _ 16,0 C 94 % 1023,6 hPa 0,0 mm 9,7 km/h
S (2 Bft)
- - 0 min 0 W/m 10,6 C 16,0 C 12,6 km/h
SO (3 Bft)
Moyenne _ 10,6 C 84 % 1021,8 hPa #0,0 mm 2,8 km/h (1 Bft) SO - #0 min. 0 W/m 7,9 C 10,5 C 4,8 km/h (1 Bft)
Saint Bonnet de Bellac- Haute Vienne - France